sensor_id;sensor_type;location;lat;lon;timestamp;pressure;altitude;pressure_sealevel;temperature;humidity
81822;BME280;71257;52.192;5.654;2023-07-13T00:01:39;101237.09;;;14.94;79.97
81822;BME280;71257;52.192;5.654;2023-07-13T00:04:04;101235.22;;;14.83;80.75
81822;BME280;71257;52.192;5.654;2023-07-13T00:06:30;101232.56;;;14.88;80.07
81822;BME280;71257;52.192;5.654;2023-07-13T00:08:58;101232.56;;;14.88;80.10
81822;BME280;71257;52.192;5.654;2023-07-13T00:11:24;101231.38;;;14.84;80.50
81822;BME280;71257;52.192;5.654;2023-07-13T00:13:50;101232.72;;;14.81;80.61
81822;BME280;71257;52.192;5.654;2023-07-13T00:16:16;101237.50;;;14.74;81.29
81822;BME280;71257;52.192;5.654;2023-07-13T00:18:41;101234.63;;;14.81;81.02
81822;BME280;71257;52.192;5.654;2023-07-13T00:21:07;101235.00;;;14.73;80.71
81822;BME280;71257;52.192;5.654;2023-07-13T00:23:35;101242.75;;;14.64;81.60
81822;BME280;71257;52.192;5.654;2023-07-13T00:26:02;101236.78;;;14.56;81.51
81822;BME280;71257;52.192;5.654;2023-07-13T00:28:28;101241.06;;;14.40;82.76
81822;BME280;71257;52.192;5.654;2023-07-13T00:30:54;101237.97;;;14.25;83.39
81822;BME280;71257;52.192;5.654;2023-07-13T00:33:19;101239.88;;;14.36;82.85
81822;BME280;71257;52.192;5.654;2023-07-13T00:35:45;101240.00;;;14.41;82.44
81822;BME280;71257;52.192;5.654;2023-07-13T00:38:10;101242.13;;;14.27;83.00
81822;BME280;71257;52.192;5.654;2023-07-13T00:40:36;101240.94;;;14.23;83.07
81822;BME280;71257;52.192;5.654;2023-07-13T00:43:01;101239.16;;;14.17;83.31
81822;BME280;71257;52.192;5.654;2023-07-13T00:48:05;101231.88;;;14.11;83.19
81822;BME280;71257;52.192;5.654;2023-07-13T00:50:30;101228.91;;;14.12;83.23
81822;BME280;71257;52.192;5.654;2023-07-13T00:52:56;101226.38;;;13.99;83.73
81822;BME280;71257;52.192;5.654;2023-07-13T00:55:23;101232.22;;;14.03;83.25
81822;BME280;71257;52.192;5.654;2023-07-13T00:57:49;101241.03;;;13.93;83.97
81822;BME280;71257;52.192;5.654;2023-07-13T01:00:14;101238.66;;;13.97;83.63
81822;BME280;71257;52.192;5.654;2023-07-13T01:02:45;101232.94;;;14.10;83.33
81822;BME280;71257;52.192;5.654;2023-07-13T01:05:14;101228.66;;;14.14;83.01
81822;BME280;71257;52.192;5.654;2023-07-13T01:07:41;101238.41;;;14.10;83.34
81822;BME280;71257;52.192;5.654;2023-07-13T01:10:25;101245.19;;;13.96;83.86
81822;BME280;71257;52.192;5.654;2023-07-13T01:12:51;101243.53;;;14.06;83.55
81822;BME280;71257;52.192;5.654;2023-07-13T01:18:19;101243.19;;;14.03;83.87
81822;BME280;71257;52.192;5.654;2023-07-13T01:20:50;101236.88;;;14.02;83.59
81822;BME280;71257;52.192;5.654;2023-07-13T01:23:16;101233.41;;;14.07;83.63
81822;BME280;71257;52.192;5.654;2023-07-13T01:25:41;101241.84;;;13.94;83.73
81822;BME280;71257;52.192;5.654;2023-07-13T01:28:08;101244.44;;;13.77;83.97
81822;BME280;71257;52.192;5.654;2023-07-13T01:30:35;101245.00;;;13.67;84.24
81822;BME280;71257;52.192;5.654;2023-07-13T01:33:06;101249.19;;;13.70;84.03
81822;BME280;71257;52.192;5.654;2023-07-13T01:35:32;101250.56;;;13.61;84.32
81822;BME280;71257;52.192;5.654;2023-07-13T01:37:57;101251.03;;;13.58;84.44
81822;BME280;71257;52.192;5.654;2023-07-13T01:40:23;101256.16;;;13.54;84.73
81822;BME280;71257;52.192;5.654;2023-07-13T01:42:48;101250.84;;;13.41;85.26
81822;BME280;71257;52.192;5.654;2023-07-13T01:45:14;101246.31;;;13.35;85.54
81822;BME280;71257;52.192;5.654;2023-07-13T01:47:39;101250.25;;;13.39;85.21
81822;BME280;71257;52.192;5.654;2023-07-13T01:50:05;101249.03;;;13.35;85.12
81822;BME280;71257;52.192;5.654;2023-07-13T01:52:30;101244.28;;;13.30;85.60
81822;BME280;71257;52.192;5.654;2023-07-13T01:54:56;101252.09;;;13.27;85.74
81822;BME280;71257;52.192;5.654;2023-07-13T01:57:21;101245.41;;;13.22;86.18
81822;BME280;71257;52.192;5.654;2023-07-13T01:59:46;101263.50;;;13.23;85.85
81822;BME280;71257;52.192;5.654;2023-07-13T02:02:12;101249.22;;;13.21;85.74
81822;BME280;71257;52.192;5.654;2023-07-13T02:04:37;101251.13;;;13.21;85.92
81822;BME280;71257;52.192;5.654;2023-07-13T02:07:03;101253.91;;;13.14;86.11
81822;BME280;71257;52.192;5.654;2023-07-13T02:09:28;101252.25;;;13.13;86.08
81822;BME280;71257;52.192;5.654;2023-07-13T02:11:53;101257.09;;;13.11;86.29
81822;BME280;71257;52.192;5.654;2023-07-13T02:14:19;101252.25;;;13.13;86.77
81822;BME280;71257;52.192;5.654;2023-07-13T02:16:44;101262.44;;;13.06;86.49
81822;BME280;71257;52.192;5.654;2023-07-13T02:19:10;101262.34;;;13.13;86.33
81822;BME280;71257;52.192;5.654;2023-07-13T02:21:35;101263.19;;;13.13;86.16
81822;BME280;71257;52.192;5.654;2023-07-13T02:24:01;101255.06;;;13.07;86.41
81822;BME280;71257;52.192;5.654;2023-07-13T02:26:27;101257.66;;;13.02;86.68
81822;BME280;71257;52.192;5.654;2023-07-13T02:28:52;101260.16;;;13.03;86.72
81822;BME280;71257;52.192;5.654;2023-07-13T02:31:17;101264.47;;;12.93;87.06
81822;BME280;71257;52.192;5.654;2023-07-13T02:33:43;101252.63;;;12.99;87.18
81822;BME280;71257;52.192;5.654;2023-07-13T02:36:09;101251.88;;;12.91;87.42
81822;BME280;71257;52.192;5.654;2023-07-13T02:38:35;101260.53;;;12.88;87.29
81822;BME280;71257;52.192;5.654;2023-07-13T02:41:03;101260.84;;;12.80;87.78
81822;BME280;71257;52.192;5.654;2023-07-13T02:43:29;101257.03;;;12.81;88.13
81822;BME280;71257;52.192;5.654;2023-07-13T02:45:55;101268.19;;;12.80;88.02
81822;BME280;71257;52.192;5.654;2023-07-13T02:48:20;101258.19;;;12.74;88.28
81822;BME280;71257;52.192;5.654;2023-07-13T02:50:45;101257.13;;;12.75;88.11
81822;BME280;71257;52.192;5.654;2023-07-13T02:53:11;101256.44;;;12.79;88.42
81822;BME280;71257;52.192;5.654;2023-07-13T02:55:37;101264.41;;;12.81;88.22
81822;BME280;71257;52.192;5.654;2023-07-13T02:58:02;101260.84;;;12.80;88.25
81822;BME280;71257;52.192;5.654;2023-07-13T03:00:27;101264.34;;;12.87;88.40
81822;BME280;71257;52.192;5.654;2023-07-13T03:02:53;101263.34;;;12.82;88.67
81822;BME280;71257;52.192;5.654;2023-07-13T03:05:22;101264.56;;;12.86;88.69
81822;BME280;71257;52.192;5.654;2023-07-13T03:07:47;101261.00;;;12.85;89.24
81822;BME280;71257;52.192;5.654;2023-07-13T03:10:13;101261.44;;;12.82;89.14
81822;BME280;71257;52.192;5.654;2023-07-13T03:12:38;101267.22;;;12.74;89.43
81822;BME280;71257;52.192;5.654;2023-07-13T03:15:04;101271.38;;;12.77;89.48
81822;BME280;71257;52.192;5.654;2023-07-13T03:17:29;101269.56;;;12.71;89.83
81822;BME280;71257;52.192;5.654;2023-07-13T03:19:55;101270.41;;;12.71;90.04
81822;BME280;71257;52.192;5.654;2023-07-13T03:22:20;101275.41;;;12.74;90.21
81822;BME280;71257;52.192;5.654;2023-07-13T03:24:46;101269.25;;;12.79;90.41
81822;BME280;71257;52.192;5.654;2023-07-13T03:27:12;101268.59;;;12.83;89.78
81822;BME280;71257;52.192;5.654;2023-07-13T03:29:37;101268.44;;;12.78;90.45
81822;BME280;71257;52.192;5.654;2023-07-13T03:32:03;101273.38;;;12.88;90.14
81822;BME280;71257;52.192;5.654;2023-07-13T03:34:30;101270.25;;;12.84;90.58
81822;BME280;71257;52.192;5.654;2023-07-13T03:36:55;101289.16;;;12.86;90.58
81822;BME280;71257;52.192;5.654;2023-07-13T03:39:22;101288.84;;;12.76;91.05
81822;BME280;71257;52.192;5.654;2023-07-13T03:41:47;101288.47;;;12.72;91.19
81822;BME280;71257;52.192;5.654;2023-07-13T03:44:13;101297.72;;;12.71;91.29
81822;BME280;71257;52.192;5.654;2023-07-13T03:46:38;101295.53;;;12.80;91.52
81822;BME280;71257;52.192;5.654;2023-07-13T03:49:05;101300.09;;;12.86;90.98
81822;BME280;71257;52.192;5.654;2023-07-13T03:51:30;101288.63;;;12.77;91.32
81822;BME280;71257;52.192;5.654;2023-07-13T03:53:56;101296.00;;;12.77;91.41
81822;BME280;71257;52.192;5.654;2023-07-13T03:56:21;101291.13;;;12.79;91.59
81822;BME280;71257;52.192;5.654;2023-07-13T03:58:49;101307.22;;;12.87;91.44
81822;BME280;71257;52.192;5.654;2023-07-13T04:01:16;101303.00;;;12.91;91.10
81822;BME280;71257;52.192;5.654;2023-07-13T04:03:43;101301.31;;;12.90;91.25
81822;BME280;71257;52.192;5.654;2023-07-13T04:06:14;101303.44;;;12.88;91.62
81822;BME280;71257;52.192;5.654;2023-07-13T04:08:41;101307.91;;;12.82;91.49
81822;BME280;71257;52.192;5.654;2023-07-13T04:11:06;101307.47;;;12.85;91.34
81822;BME280;71257;52.192;5.654;2023-07-13T04:13:31;101319.38;;;12.91;91.29
81822;BME280;71257;52.192;5.654;2023-07-13T04:15:57;101314.91;;;12.97;90.77
81822;BME280;71257;52.192;5.654;2023-07-13T04:18:22;101316.44;;;12.93;91.49
81822;BME280;71257;52.192;5.654;2023-07-13T04:20:49;101316.81;;;12.96;91.30
81822;BME280;71257;52.192;5.654;2023-07-13T04:23:15;101321.16;;;13.04;91.17
81822;BME280;71257;52.192;5.654;2023-07-13T04:25:46;101316.06;;;13.07;91.13
81822;BME280;71257;52.192;5.654;2023-07-13T04:28:15;101315.81;;;13.09;91.06
81822;BME280;71257;52.192;5.654;2023-07-13T04:30:40;101316.22;;;13.12;90.99
81822;BME280;71257;52.192;5.654;2023-07-13T04:33:06;101322.59;;;13.06;91.46
81822;BME280;71257;52.192;5.654;2023-07-13T04:35:31;101323.66;;;13.05;91.64
81822;BME280;71257;52.192;5.654;2023-07-13T04:37:57;101324.41;;;13.12;91.37
81822;BME280;71257;52.192;5.654;2023-07-13T04:40:22;101323.13;;;13.15;91.08
81822;BME280;71257;52.192;5.654;2023-07-13T04:42:48;101329.44;;;13.15;91.34
81822;BME280;71257;52.192;5.654;2023-07-13T04:45:14;101332.13;;;13.22;91.16
81822;BME280;71257;52.192;5.654;2023-07-13T04:47:40;101338.56;;;13.28;91.06
81822;BME280;71257;52.192;5.654;2023-07-13T04:50:07;101329.06;;;13.30;91.16
81822;BME280;71257;52.192;5.654;2023-07-13T04:52:33;101333.25;;;13.33;91.17
81822;BME280;71257;52.192;5.654;2023-07-13T04:54:59;101326.19;;;13.43;91.20
81822;BME280;71257;52.192;5.654;2023-07-13T04:57:26;101319.31;;;13.52;91.09
81822;BME280;71257;52.192;5.654;2023-07-13T04:59:51;101329.56;;;13.57;91.06
81822;BME280;71257;52.192;5.654;2023-07-13T05:02:17;101337.84;;;13.69;90.95
81822;BME280;71257;52.192;5.654;2023-07-13T05:04:46;101328.00;;;13.79;90.96
81822;BME280;71257;52.192;5.654;2023-07-13T05:07:12;101331.03;;;13.90;90.88
81822;BME280;71257;52.192;5.654;2023-07-13T05:09:38;101333.78;;;14.01;90.16
81822;BME280;71257;52.192;5.654;2023-07-13T05:12:04;101345.38;;;14.15;90.06
81822;BME280;71257;52.192;5.654;2023-07-13T05:14:29;101343.63;;;14.20;89.33
81822;BME280;71257;52.192;5.654;2023-07-13T05:16:55;101346.00;;;14.29;89.38
81822;BME280;71257;52.192;5.654;2023-07-13T05:19:22;101344.00;;;14.36;89.10
81822;BME280;71257;52.192;5.654;2023-07-13T05:21:48;101349.41;;;14.42;88.97
81822;BME280;71257;52.192;5.654;2023-07-13T05:24:13;101351.69;;;14.45;89.35
81822;BME280;71257;52.192;5.654;2023-07-13T05:26:39;101358.34;;;14.49;89.03
81822;BME280;71257;52.192;5.654;2023-07-13T05:29:04;101360.16;;;14.56;89.23
81822;BME280;71257;52.192;5.654;2023-07-13T05:31:29;101350.38;;;14.71;88.83
81822;BME280;71257;52.192;5.654;2023-07-13T05:33:55;101354.44;;;14.69;88.33
81822;BME280;71257;52.192;5.654;2023-07-13T05:36:20;101359.56;;;14.77;88.89
81822;BME280;71257;52.192;5.654;2023-07-13T05:38:45;101357.66;;;14.77;87.76
81822;BME280;71257;52.192;5.654;2023-07-13T05:41:11;101361.84;;;14.80;88.61
81822;BME280;71257;52.192;5.654;2023-07-13T05:43:36;101377.47;;;14.91;88.09
81822;BME280;71257;52.192;5.654;2023-07-13T05:46:02;101380.19;;;15.03;88.20
81822;BME280;71257;52.192;5.654;2023-07-13T05:48:28;101387.00;;;15.12;87.53
81822;BME280;71257;52.192;5.654;2023-07-13T05:50:53;101380.31;;;15.08;87.82
81822;BME280;71257;52.192;5.654;2023-07-13T05:53:18;101380.78;;;15.16;87.42
81822;BME280;71257;52.192;5.654;2023-07-13T05:55:45;101382.69;;;15.16;87.18
81822;BME280;71257;52.192;5.654;2023-07-13T05:58:19;101379.69;;;15.29;86.94
81822;BME280;71257;52.192;5.654;2023-07-13T06:00:45;101384.59;;;15.27;86.91
81822;BME280;71257;52.192;5.654;2023-07-13T06:03:11;101396.53;;;15.33;86.55
81822;BME280;71257;52.192;5.654;2023-07-13T06:05:38;101387.44;;;15.32;86.83
81822;BME280;71257;52.192;5.654;2023-07-13T06:08:04;101385.53;;;15.33;86.58
81822;BME280;71257;52.192;5.654;2023-07-13T06:10:32;101397.13;;;15.23;86.99
81822;BME280;71257;52.192;5.654;2023-07-13T06:12:57;101404.03;;;15.26;87.08
81822;BME280;71257;52.192;5.654;2023-07-13T06:15:23;101403.91;;;15.32;87.09
81822;BME280;71257;52.192;5.654;2023-07-13T06:17:48;101405.34;;;15.35;86.82
81822;BME280;71257;52.192;5.654;2023-07-13T06:20:14;101404.38;;;15.41;86.84
81822;BME280;71257;52.192;5.654;2023-07-13T06:22:39;101408.06;;;15.46;87.00
81822;BME280;71257;52.192;5.654;2023-07-13T06:25:05;101417.66;;;15.67;86.02
81822;BME280;71257;52.192;5.654;2023-07-13T06:27:30;101409.63;;;15.77;86.03
81822;BME280;71257;52.192;5.654;2023-07-13T06:29:56;101420.44;;;15.96;84.96
81822;BME280;71257;52.192;5.654;2023-07-13T06:32:21;101424.78;;;16.08;83.86
81822;BME280;71257;52.192;5.654;2023-07-13T06:34:46;101422.97;;;16.14;84.71
81822;BME280;71257;52.192;5.654;2023-07-13T06:37:12;101414.50;;;16.16;84.32
81822;BME280;71257;52.192;5.654;2023-07-13T06:39:38;101426.16;;;16.23;83.69
81822;BME280;71257;52.192;5.654;2023-07-13T06:42:03;101421.50;;;16.23;83.96
81822;BME280;71257;52.192;5.654;2023-07-13T06:44:29;101417.72;;;16.41;83.36
81822;BME280;71257;52.192;5.654;2023-07-13T06:46:55;101424.94;;;16.30;83.53
81822;BME280;71257;52.192;5.654;2023-07-13T06:49:20;101425.88;;;16.36;84.06
81822;BME280;71257;52.192;5.654;2023-07-13T06:51:45;101420.66;;;16.23;84.42
81822;BME280;71257;52.192;5.654;2023-07-13T06:54:11;101429.25;;;16.26;84.06
81822;BME280;71257;52.192;5.654;2023-07-13T06:56:36;101427.09;;;16.28;83.56
81822;BME280;71257;52.192;5.654;2023-07-13T06:59:01;101433.91;;;16.26;84.50
81822;BME280;71257;52.192;5.654;2023-07-13T07:01:45;101428.56;;;16.19;83.98
81822;BME280;71257;52.192;5.654;2023-07-13T07:04:11;101433.56;;;16.22;83.86
81822;BME280;71257;52.192;5.654;2023-07-13T07:06:36;101429.47;;;16.53;83.07
81822;BME280;71257;52.192;5.654;2023-07-13T07:09:02;101433.88;;;16.83;82.42
81822;BME280;71257;52.192;5.654;2023-07-13T07:11:27;101431.34;;;16.81;82.02
81822;BME280;71257;52.192;5.654;2023-07-13T07:13:53;101424.94;;;16.75;81.27
81822;BME280;71257;52.192;5.654;2023-07-13T07:16:20;101432.88;;;16.89;80.63
81822;BME280;71257;52.192;5.654;2023-07-13T07:18:46;101438.69;;;16.92;80.93
81822;BME280;71257;52.192;5.654;2023-07-13T07:21:13;101428.88;;;17.35;78.91
81822;BME280;71257;52.192;5.654;2023-07-13T07:23:39;101436.06;;;17.36;78.83
81822;BME280;71257;52.192;5.654;2023-07-13T07:26:05;101439.84;;;17.13;79.89
81822;BME280;71257;52.192;5.654;2023-07-13T07:28:32;101437.50;;;17.22;80.92
81822;BME280;71257;52.192;5.654;2023-07-13T07:30:58;101441.50;;;17.31;80.26
81822;BME280;71257;52.192;5.654;2023-07-13T07:33:24;101447.94;;;17.20;80.31
81822;BME280;71257;52.192;5.654;2023-07-13T07:35:50;101436.09;;;17.19;80.14
81822;BME280;71257;52.192;5.654;2023-07-13T07:38:16;101447.72;;;17.43;78.65
81822;BME280;71257;52.192;5.654;2023-07-13T07:40:42;101449.00;;;17.74;77.75
81822;BME280;71257;52.192;5.654;2023-07-13T07:43:08;101454.44;;;17.69;78.05
81822;BME280;71257;52.192;5.654;2023-07-13T07:45:35;101449.28;;;17.56;78.66
81822;BME280;71257;52.192;5.654;2023-07-13T07:48:02;101448.16;;;17.35;79.63
81822;BME280;71257;52.192;5.654;2023-07-13T07:50:28;101464.38;;;17.15;80.63
81822;BME280;71257;52.192;5.654;2023-07-13T07:52:54;101449.13;;;16.90;82.15
81822;BME280;71257;52.192;5.654;2023-07-13T07:55:21;101452.63;;;16.86;82.17
81822;BME280;71257;52.192;5.654;2023-07-13T07:57:47;101448.69;;;16.82;82.38
81822;BME280;71257;52.192;5.654;2023-07-13T08:00:13;101448.13;;;16.80;83.82
81822;BME280;71257;52.192;5.654;2023-07-13T08:02:39;101452.69;;;16.74;84.76
81822;BME280;71257;52.192;5.654;2023-07-13T08:05:07;101442.63;;;16.96;84.46
81822;BME280;71257;52.192;5.654;2023-07-13T08:07:32;101442.53;;;17.08;83.24
81822;BME280;71257;52.192;5.654;2023-07-13T08:09:58;101434.25;;;17.25;82.95
81822;BME280;71257;52.192;5.654;2023-07-13T08:12:23;101429.16;;;17.17;81.45
81822;BME280;71257;52.192;5.654;2023-07-13T08:14:50;101429.00;;;17.23;83.12
81822;BME280;71257;52.192;5.654;2023-07-13T08:17:22;101432.66;;;17.29;82.95
81822;BME280;71257;52.192;5.654;2023-07-13T08:19:48;101437.69;;;17.15;81.41
81822;BME280;71257;52.192;5.654;2023-07-13T08:22:13;101435.91;;;17.26;82.84
81822;BME280;71257;52.192;5.654;2023-07-13T08:24:39;101442.84;;;17.28;81.48
81822;BME280;71257;52.192;5.654;2023-07-13T08:27:04;101435.59;;;17.22;79.13
81822;BME280;71257;52.192;5.654;2023-07-13T08:29:30;101439.66;;;17.36;79.67
81822;BME280;71257;52.192;5.654;2023-07-13T08:31:57;101446.09;;;17.64;78.33
81822;BME280;71257;52.192;5.654;2023-07-13T08:34:23;101447.53;;;18.37;77.31
81822;BME280;71257;52.192;5.654;2023-07-13T08:36:48;101441.00;;;18.70;75.33
81822;BME280;71257;52.192;5.654;2023-07-13T08:39:14;101444.63;;;18.76;74.08
81822;BME280;71257;52.192;5.654;2023-07-13T08:41:39;101432.81;;;18.26;73.14
81822;BME280;71257;52.192;5.654;2023-07-13T08:44:11;101438.47;;;18.15;74.30
81822;BME280;71257;52.192;5.654;2023-07-13T08:46:41;101441.44;;;18.08;74.04
81822;BME280;71257;52.192;5.654;2023-07-13T08:49:13;101444.72;;;18.86;72.38
81822;BME280;71257;52.192;5.654;2023-07-13T08:51:51;101434.06;;;19.42;68.76
81822;BME280;71257;52.192;5.654;2023-07-13T08:54:40;101431.97;;;19.17;70.71
81822;BME280;71257;52.192;5.654;2023-07-13T08:57:13;101435.34;;;18.60;71.13
81822;BME280;71257;52.192;5.654;2023-07-13T08:59:39;101452.13;;;18.26;72.68
81822;BME280;71257;52.192;5.654;2023-07-13T09:04:57;101445.75;;;19.12;68.43
81822;BME280;71257;52.192;5.654;2023-07-13T09:07:33;101436.91;;;20.14;65.76
81822;BME280;71257;52.192;5.654;2023-07-13T09:10:19;101454.56;;;19.09;68.44
81822;BME280;71257;52.192;5.654;2023-07-13T09:12:58;101451.13;;;18.38;70.41
81822;BME280;71257;52.192;5.654;2023-07-13T09:15:32;101463.03;;;17.73;73.99
81822;BME280;71257;52.192;5.654;2023-07-13T09:18:04;101475.94;;;17.33;77.78
81822;BME280;71257;52.192;5.654;2023-07-13T09:23:15;101466.13;;;16.87;78.73
81822;BME280;71257;52.192;5.654;2023-07-13T09:25:45;101465.38;;;16.92;78.95
81822;BME280;71257;52.192;5.654;2023-07-13T09:28:18;101471.13;;;17.07;80.23
81822;BME280;71257;52.192;5.654;2023-07-13T09:33:22;101472.44;;;19.38;69.56
81822;BME280;71257;52.192;5.654;2023-07-13T09:35:51;101484.41;;;18.80;70.46
81822;BME280;71257;52.192;5.654;2023-07-13T09:38:18;101473.25;;;19.76;67.56
81822;BME280;71257;52.192;5.654;2023-07-13T09:44:06;101465.31;;;20.82;64.26
81822;BME280;71257;52.192;5.654;2023-07-13T09:46:34;101472.44;;;21.70;62.65
81822;BME280;71257;52.192;5.654;2023-07-13T09:49:00;101474.25;;;22.10;61.45
81822;BME280;71257;52.192;5.654;2023-07-13T09:51:25;101492.47;;;21.01;63.62
81822;BME280;71257;52.192;5.654;2023-07-13T09:53:50;101489.47;;;19.62;69.89
81822;BME280;71257;52.192;5.654;2023-07-13T09:56:22;101478.63;;;21.26;66.85
81822;BME280;71257;52.192;5.654;2023-07-13T09:58:47;101471.09;;;22.32;61.76
81822;BME280;71257;52.192;5.654;2023-07-13T10:01:13;101478.72;;;22.06;61.30
81822;BME280;71257;52.192;5.654;2023-07-13T10:03:52;101475.38;;;21.99;62.36
81822;BME280;71257;52.192;5.654;2023-07-13T10:06:20;101470.59;;;21.25;64.19
81822;BME280;71257;52.192;5.654;2023-07-13T10:08:48;101476.41;;;20.05;67.17
81822;BME280;71257;52.192;5.654;2023-07-13T10:11:21;101491.81;;;19.06;69.00
81822;BME280;71257;52.192;5.654;2023-07-13T10:16:29;101513.94;;;17.87;77.38
81822;BME280;71257;52.192;5.654;2023-07-13T10:19:02;101517.50;;;17.15;78.78
81822;BME280;71257;52.192;5.654;2023-07-13T10:24:30;101515.22;;;16.50;83.39
81822;BME280;71257;52.192;5.654;2023-07-13T10:30:01;101513.56;;;19.67;76.43
81822;BME280;71257;52.192;5.654;2023-07-13T10:32:27;101509.34;;;21.14;70.49
81822;BME280;71257;52.192;5.654;2023-07-13T10:34:53;101509.22;;;22.01;65.69
81822;BME280;71257;52.192;5.654;2023-07-13T10:37:24;101507.56;;;23.03;62.41
81822;BME280;71257;52.192;5.654;2023-07-13T10:39:53;101513.47;;;22.47;60.45
81822;BME280;71257;52.192;5.654;2023-07-13T10:42:28;101509.03;;;23.25;58.71
81822;BME280;71257;52.192;5.654;2023-07-13T10:44:54;101515.78;;;22.79;60.15
81822;BME280;71257;52.192;5.654;2023-07-13T10:47:19;101523.22;;;21.35;63.88
81822;BME280;71257;52.192;5.654;2023-07-13T10:49:54;101515.47;;;21.27;65.77
81822;BME280;71257;52.192;5.654;2023-07-13T10:52:45;101516.84;;;22.39;57.16
81822;BME280;71257;52.192;5.654;2023-07-13T10:55:40;101517.75;;;23.76;54.40
81822;BME280;71257;52.192;5.654;2023-07-13T10:58:23;101528.81;;;24.29;54.68
81822;BME280;71257;52.192;5.654;2023-07-13T11:03:27;101521.59;;;23.51;54.07
81822;BME280;71257;52.192;5.654;2023-07-13T11:07:16;101516.53;;;21.56;60.33
81822;BME280;71257;52.192;5.654;2023-07-13T11:14:28;101524.94;;;22.31;60.50
81822;BME280;71257;52.192;5.654;2023-07-13T11:16:54;101529.75;;;23.95;54.58
81822;BME280;71257;52.192;5.654;2023-07-13T11:25:00;101525.91;;;23.33;54.37
81822;BME280;71257;52.192;5.654;2023-07-13T11:27:44;101530.50;;;22.75;54.82
81822;BME280;71257;52.192;5.654;2023-07-13T11:38:43;101531.78;;;21.59;59.62
81822;BME280;71257;52.192;5.654;2023-07-13T11:41:31;101541.75;;;23.67;54.25
81822;BME280;71257;52.192;5.654;2023-07-13T11:44:21;101547.28;;;24.43;52.67
81822;BME280;71257;52.192;5.654;2023-07-13T11:46:51;101538.09;;;22.59;55.48
81822;BME280;71257;52.192;5.654;2023-07-13T11:49:19;101549.72;;;24.02;54.75
81822;BME280;71257;52.192;5.654;2023-07-13T11:51:45;101554.78;;;23.71;53.99
81822;BME280;71257;52.192;5.654;2023-07-13T11:54:21;101553.09;;;23.07;53.72
81822;BME280;71257;52.192;5.654;2023-07-13T11:56:48;101550.59;;;21.77;58.72
81822;BME280;71257;52.192;5.654;2023-07-13T11:59:15;101557.00;;;21.16;60.88
81822;BME280;71257;52.192;5.654;2023-07-13T12:01:49;101556.75;;;20.35;65.90
81822;BME280;71257;52.192;5.654;2023-07-13T12:04:25;101549.78;;;19.38;67.46
81822;BME280;71257;52.192;5.654;2023-07-13T12:06:57;101563.25;;;19.29;71.58
81822;BME280;71257;52.192;5.654;2023-07-13T12:09:26;101557.03;;;19.44;70.01
81822;BME280;71257;52.192;5.654;2023-07-13T12:11:53;101549.53;;;21.58;67.80
81822;BME280;71257;52.192;5.654;2023-07-13T12:14:19;101551.16;;;21.03;66.50
81822;BME280;71257;52.192;5.654;2023-07-13T12:16:46;101538.31;;;20.51;67.79
81822;BME280;71257;52.192;5.654;2023-07-13T12:19:32;101548.06;;;20.06;68.61
81822;BME280;71257;52.192;5.654;2023-07-13T12:21:58;101556.91;;;19.61;68.76
81822;BME280;71257;52.192;5.654;2023-07-13T12:24:25;101551.03;;;19.52;68.70
81822;BME280;71257;52.192;5.654;2023-07-13T12:26:55;101553.09;;;19.35;71.07
81822;BME280;71257;52.192;5.654;2023-07-13T12:29:21;101552.00;;;19.36;70.91
81822;BME280;71257;52.192;5.654;2023-07-13T12:31:48;101546.00;;;19.49;70.13
81822;BME280;71257;52.192;5.654;2023-07-13T12:34:18;101551.69;;;19.64;68.97
81822;BME280;71257;52.192;5.654;2023-07-13T12:36:48;101563.41;;;19.82;69.50
81822;BME280;71257;52.192;5.654;2023-07-13T12:41:53;101551.28;;;20.40;66.99
81822;BME280;71257;52.192;5.654;2023-07-13T12:44:27;101549.56;;;20.34;64.61
81822;BME280;71257;52.192;5.654;2023-07-13T12:46:58;101549.53;;;20.29;65.28
81822;BME280;71257;52.192;5.654;2023-07-13T12:49:27;101554.19;;;20.18;67.06
81822;BME280;71257;52.192;5.654;2023-07-13T12:51:58;101565.47;;;20.07;67.23
81822;BME280;71257;52.192;5.654;2023-07-13T12:54:26;101557.41;;;20.57;67.00
81822;BME280;71257;52.192;5.654;2023-07-13T12:56:53;101557.00;;;21.01;64.66
81822;BME280;71257;52.192;5.654;2023-07-13T12:59:21;101548.66;;;21.82;60.51
81822;BME280;71257;52.192;5.654;2023-07-13T13:01:48;101548.97;;;22.50;57.30
81822;BME280;71257;52.192;5.654;2023-07-13T13:04:14;101556.63;;;23.81;53.53
81822;BME280;71257;52.192;5.654;2023-07-13T13:06:40;101547.38;;;24.57;52.35
81822;BME280;71257;52.192;5.654;2023-07-13T13:09:11;101554.59;;;25.33;51.95
81822;BME280;71257;52.192;5.654;2023-07-13T13:11:38;101555.06;;;25.22;47.28
81822;BME280;71257;52.192;5.654;2023-07-13T13:14:05;101561.38;;;23.46;54.29
81822;BME280;71257;52.192;5.654;2023-07-13T13:16:34;101551.56;;;22.37;58.88
81822;BME280;71257;52.192;5.654;2023-07-13T13:19:12;101559.09;;;22.26;55.85
81822;BME280;71257;52.192;5.654;2023-07-13T13:21:38;101558.47;;;24.15;51.57
81822;BME280;71257;52.192;5.654;2023-07-13T13:24:10;101562.38;;;24.61;48.50
81822;BME280;71257;52.192;5.654;2023-07-13T13:26:36;101554.38;;;24.92;47.88
81822;BME280;71257;52.192;5.654;2023-07-13T13:29:09;101558.31;;;23.48;51.15
81822;BME280;71257;52.192;5.654;2023-07-13T13:31:36;101553.25;;;22.28;54.32
81822;BME280;71257;52.192;5.654;2023-07-13T13:34:01;101557.31;;;21.50;56.66
81822;BME280;71257;52.192;5.654;2023-07-13T13:36:27;101560.63;;;21.27;57.97
81822;BME280;71257;52.192;5.654;2023-07-13T13:38:52;101564.31;;;22.92;52.64
81822;BME280;71257;52.192;5.654;2023-07-13T13:41:18;101564.75;;;24.01;49.38
81822;BME280;71257;52.192;5.654;2023-07-13T13:43:43;101556.94;;;24.51;50.12